createdAt,value
2019-05-26T00:03:02.245Z,96336.00
2019-05-26T00:08:04.708Z,96332.00
2019-05-26T00:13:07.115Z,96331.00
2019-05-26T00:18:09.651Z,96330.00
2019-05-26T00:23:12.123Z,96331.00
2019-05-26T00:28:15.539Z,96324.00
2019-05-26T00:33:17.971Z,96324.00
2019-05-26T00:38:20.577Z,96315.00
2019-05-26T00:43:23.054Z,96306.00
2019-05-26T00:48:26.868Z,96302.00
2019-05-26T00:53:29.352Z,96299.00
2019-05-26T00:58:32.116Z,96295.00
2019-05-26T01:03:34.600Z,96294.00
2019-05-26T01:08:37.218Z,96297.00
2019-05-26T01:13:39.936Z,96292.00
2019-05-26T01:18:42.381Z,96299.00
2019-05-26T01:23:45.351Z,96294.00
2019-05-26T01:28:47.756Z,96283.00
2019-05-26T01:33:50.151Z,96287.00
2019-05-26T01:38:53.356Z,96275.00
2019-05-26T01:43:55.771Z,96279.00
2019-05-26T01:48:58.424Z,96272.00
2019-05-26T01:54:01.858Z,96270.00
2019-05-26T01:59:04.401Z,96273.00
2019-05-26T02:04:06.952Z,96282.00
2019-05-26T02:09:09.354Z,96293.00
2019-05-26T02:14:14.532Z,96288.00
2019-05-26T02:19:15.979Z,96283.00
2019-05-26T02:24:19.107Z,96282.00
2019-05-26T02:29:21.519Z,96292.00
2019-05-26T02:34:23.998Z,96283.00
2019-05-26T02:39:26.369Z,96284.00
2019-05-26T02:44:28.777Z,96269.00
2019-05-26T02:49:31.180Z,96276.00
2019-05-26T02:54:33.654Z,96281.00
2019-05-26T02:59:36.105Z,96276.00
2019-05-26T03:04:40.323Z,96290.00
2019-05-26T03:09:44.921Z,96296.00
2019-05-26T03:14:49.572Z,96295.00
2019-05-26T03:19:54.748Z,96300.00
2019-05-26T03:24:59.809Z,96292.00
2019-05-26T03:30:02.380Z,96297.00
2019-05-26T03:35:06.273Z,96295.00
2019-05-26T03:40:09.321Z,96307.00
2019-05-26T03:45:22.867Z,96301.00
2019-05-26T03:50:25.837Z,96313.00
2019-05-26T03:55:28.384Z,96304.00
2019-05-26T04:00:30.974Z,96306.00
2019-05-26T04:05:33.492Z,96316.00
2019-05-26T04:10:35.947Z,96321.00
2019-05-26T04:15:38.338Z,96327.00
2019-05-26T04:20:45.518Z,96324.00
2019-05-26T04:25:45.080Z,96326.00
2019-05-26T04:30:47.572Z,96331.00
2019-05-26T04:35:49.965Z,96335.00
2019-05-26T04:40:52.436Z,96332.00
2019-05-26T04:45:54.827Z,96343.00
2019-05-26T04:50:57.276Z,96348.00
2019-05-26T04:55:59.711Z,96348.00
2019-05-26T05:01:02.129Z,96342.00
2019-05-26T05:06:04.686Z,96350.00
2019-05-26T05:11:07.167Z,96336.00
2019-05-26T05:16:09.648Z,96337.00
2019-05-26T05:21:12.020Z,96342.00
2019-05-26T05:26:14.751Z,96338.00
2019-05-26T05:43:20.163Z,96339.00
2019-05-26T05:48:23.251Z,96340.00
2019-05-26T05:53:25.687Z,96345.00
2019-05-26T05:58:28.034Z,96341.00
2019-05-26T06:03:30.639Z,96341.00
2019-05-26T06:08:33.011Z,96343.00
2019-05-26T06:13:35.316Z,96355.00
2019-05-26T06:18:37.751Z,96358.00
2019-05-26T06:23:40.189Z,96360.00
2019-05-26T06:28:42.720Z,96350.00
2019-05-26T06:33:46.480Z,96349.00
2019-05-26T06:38:50.203Z,96351.00
2019-05-26T06:44:01.515Z,96348.00
2019-05-26T06:49:17.467Z,96354.00
2019-05-26T06:54:50.776Z,96363.00
2019-05-26T07:00:38.952Z,96359.00
2019-05-26T07:05:41.513Z,96359.00
2019-05-26T07:22:47.061Z,96363.00
2019-05-26T07:27:49.448Z,96369.00
2019-05-26T07:33:28.027Z,96375.00
2019-05-26T07:38:51.503Z,96369.00
2019-05-26T07:43:54.672Z,96364.00
2019-05-26T07:48:57.049Z,96377.00
2019-05-26T07:54:27.824Z,96375.00
2019-05-26T07:59:31.120Z,96374.00
2019-05-26T08:04:33.641Z,96360.00
2019-05-26T08:09:36.389Z,96359.00
2019-05-26T08:14:40.930Z,96363.00
2019-05-26T08:19:43.339Z,96361.00
2019-05-26T08:24:47.024Z,96356.00
2019-05-26T08:29:49.752Z,96354.00
2019-05-26T08:34:52.551Z,96360.00
2019-05-26T08:39:58.317Z,96355.00
2019-05-26T08:45:01.005Z,96358.00
2019-05-26T08:50:05.429Z,96356.00
2019-05-26T09:01:03.536Z,96347.00
2019-05-26T09:06:06.115Z,96340.00
2019-05-26T09:11:08.664Z,96344.00
2019-05-26T09:16:12.303Z,96345.00
2019-05-26T09:21:14.970Z,96335.00
2019-05-26T09:26:17.548Z,96344.00
2019-05-26T09:31:20.765Z,96336.00
2019-05-26T09:36:23.241Z,96335.00
2019-05-26T09:41:26.196Z,96334.00
2019-05-26T09:46:28.778Z,96335.00
2019-05-26T09:51:31.271Z,96331.00
2019-05-26T09:56:33.702Z,96321.00
2019-05-26T10:01:38.249Z,96320.00
2019-05-26T10:06:41.814Z,96331.00
2019-05-26T10:11:45.649Z,96327.00
2019-05-26T10:17:08.393Z,96322.00
2019-05-26T10:22:12.709Z,96329.00
2019-05-26T10:27:15.345Z,96322.00
2019-05-26T10:32:17.844Z,96328.00
2019-05-26T10:37:20.243Z,96318.00
2019-05-26T10:42:22.804Z,96324.00
2019-05-26T10:47:25.222Z,96306.00
2019-05-26T10:52:31.606Z,96315.00
2019-05-26T10:57:34.219Z,96307.00
2019-05-26T11:02:36.822Z,96315.00
2019-05-26T11:07:39.356Z,96320.00
2019-05-26T11:12:43.156Z,96309.00
2019-05-26T11:17:45.715Z,96306.00
2019-05-26T11:22:48.218Z,96303.00
2019-05-26T11:27:50.798Z,96294.00
2019-05-26T11:32:53.763Z,96302.00
2019-05-26T11:37:56.960Z,96287.00
2019-05-26T11:43:15.637Z,96287.00
2019-05-26T11:48:06.746Z,96280.00
2019-05-26T11:53:09.310Z,96289.00
2019-05-26T11:58:11.941Z,96273.00
2019-05-26T12:03:21.962Z,96279.00
2019-05-26T12:08:24.804Z,96272.00
2019-05-26T12:13:27.190Z,96280.00
2019-05-26T12:18:30.342Z,96261.00
2019-05-26T12:23:32.808Z,96258.00
2019-05-26T12:28:35.248Z,96255.00
2019-05-26T12:33:37.673Z,96257.00
2019-05-26T12:38:52.075Z,96242.00
2019-05-26T12:43:54.887Z,96244.00
2019-05-26T12:48:58.322Z,96220.00
2019-05-26T12:54:00.756Z,96228.00
2019-05-26T12:59:03.529Z,96220.00
2019-05-26T13:04:06.011Z,96216.00
2019-05-26T13:09:11.217Z,96212.00
2019-05-26T13:14:13.703Z,96209.00
2019-05-26T13:19:17.903Z,96192.00
2019-05-26T13:24:20.394Z,96196.00
2019-05-26T13:29:25.708Z,96189.00
2019-05-26T13:34:27.229Z,96191.00
2019-05-26T13:39:29.810Z,96199.00
2019-05-26T13:44:32.499Z,96197.00
2019-05-26T13:49:35.306Z,96192.00
2019-05-26T13:54:39.904Z,96209.00
2019-05-26T14:05:57.798Z,96197.00
2019-05-26T14:11:20.518Z,96197.00
2019-05-26T14:16:33.809Z,96207.00
2019-05-26T14:21:36.553Z,96203.00
2019-05-26T14:26:39.291Z,96205.00
2019-05-26T14:31:52.870Z,96200.00
2019-05-26T14:36:54.660Z,96192.00
2019-05-26T14:41:57.254Z,96194.00
2019-05-26T14:46:59.768Z,96190.00
2019-05-26T14:52:02.266Z,96186.00
2019-05-26T14:57:06.685Z,96181.00
2019-05-26T15:02:19.959Z,96189.00
2019-05-26T15:07:23.444Z,96182.00
2019-05-26T15:12:27.085Z,96176.00
2019-05-26T15:17:32.378Z,96176.00
2019-05-26T15:22:35.128Z,96177.00
2019-05-26T15:27:37.765Z,96169.00
2019-05-26T15:32:40.215Z,96171.00
2019-05-26T15:37:44.528Z,96170.00
2019-05-26T15:42:48.234Z,96169.00
2019-05-26T15:47:50.643Z,96163.00
2019-05-26T15:52:53.039Z,96154.00
2019-05-26T15:57:55.359Z,96154.00
2019-05-26T16:02:57.999Z,96152.00
2019-05-26T16:08:00.379Z,96149.00
2019-05-26T16:13:02.953Z,96138.00
2019-05-26T16:18:05.439Z,96139.00
2019-05-26T16:23:09.142Z,96137.00
2019-05-26T16:28:11.921Z,96134.00
2019-05-26T16:33:14.373Z,96138.00
2019-05-26T16:38:16.988Z,96138.00
2019-05-26T16:43:20.176Z,96135.00
2019-05-26T16:48:22.711Z,96137.00
2019-05-26T16:53:25.345Z,96138.00
2019-05-26T16:58:27.796Z,96145.00
2019-05-26T17:03:30.331Z,96143.00
2019-05-26T17:08:33.163Z,96138.00
2019-05-26T17:13:37.700Z,96140.00
2019-05-26T17:18:41.315Z,96130.00
2019-05-26T17:23:44.072Z,96129.00
2019-05-26T17:28:46.805Z,96132.00
2019-05-26T17:33:50.292Z,96120.00
2019-05-26T17:38:53.116Z,96120.00
2019-05-26T17:43:57.600Z,96113.00
2019-05-26T17:49:00.211Z,96113.00
2019-05-26T17:54:02.834Z,96102.00
2019-05-26T17:59:05.412Z,96098.00
2019-05-26T18:04:07.871Z,96096.00
2019-05-26T18:09:10.650Z,96093.00
2019-05-26T18:14:13.065Z,96095.00
2019-05-26T18:19:16.512Z,96082.00
2019-05-26T18:24:18.901Z,96080.00
2019-05-26T18:29:21.405Z,96070.00
2019-05-26T18:34:24.599Z,96061.00
2019-05-26T18:39:26.907Z,96063.00
2019-05-26T18:44:29.355Z,96068.00
2019-05-26T18:49:31.853Z,96060.00
2019-05-26T18:54:34.535Z,96064.00
2019-05-26T18:59:36.973Z,96066.00
2019-05-26T19:04:40.355Z,96063.00
2019-05-26T19:09:43.248Z,96070.00
2019-05-26T19:14:45.930Z,96066.00
2019-05-26T19:19:48.932Z,96066.00
2019-05-26T19:24:51.299Z,96071.00
2019-05-26T19:29:53.719Z,96074.00
2019-05-26T19:34:57.116Z,96073.00
2019-05-26T19:40:02.679Z,96082.00
2019-05-26T19:45:06.068Z,96078.00
2019-05-26T19:50:09.137Z,96080.00
2019-05-26T19:55:11.611Z,96077.00
2019-05-26T20:00:17.031Z,96077.00
2019-05-26T20:05:21.935Z,96076.00
2019-05-26T20:10:25.841Z,96078.00
2019-05-26T20:15:29.083Z,96077.00
2019-05-26T20:21:17.623Z,96076.00
2019-05-26T20:26:20.406Z,96070.00
2019-05-26T20:31:22.796Z,96075.00
2019-05-26T20:36:25.328Z,96076.00
2019-05-26T20:41:27.942Z,96078.00
2019-05-26T20:46:30.864Z,96075.00
2019-05-26T20:51:33.471Z,96073.00
2019-05-26T20:56:35.970Z,96063.00
2019-05-26T21:01:38.601Z,96067.00
2019-05-26T21:06:41.530Z,96073.00
2019-05-26T21:11:45.530Z,96065.00
2019-05-26T21:16:56.921Z,96066.00
2019-05-26T21:21:59.748Z,96066.00
2019-05-26T21:32:39.763Z,96069.00
2019-05-26T21:37:42.380Z,96064.00
2019-05-26T21:42:44.991Z,96075.00
2019-05-26T21:47:47.459Z,96077.00
2019-05-26T21:52:50.847Z,96066.00
2019-05-26T21:57:53.388Z,96073.00
2019-05-26T22:02:56.147Z,96079.00
2019-05-26T22:07:58.728Z,96087.00
2019-05-26T22:24:34.880Z,96078.00
2019-05-26T22:29:40.723Z,96069.00
2019-05-26T22:34:43.338Z,96075.00
2019-05-26T22:39:46.276Z,96062.00
2019-05-26T22:44:49.137Z,96054.00
2019-05-26T22:49:51.821Z,96054.00
2019-05-26T22:54:54.903Z,96047.00
2019-05-26T23:00:00.921Z,96045.00
2019-05-26T23:05:03.894Z,96047.00
2019-05-26T23:10:07.257Z,96039.00
2019-05-26T23:26:23.793Z,96026.00
2019-05-26T23:31:26.521Z,96026.00
2019-05-26T23:36:29.874Z,96016.00
2019-05-26T23:41:32.653Z,96018.00
2019-05-26T23:46:35.407Z,96018.00
2019-05-26T23:51:37.979Z,96006.00
2019-05-26T23:56:58.962Z,96012.00
